sensor_id;sensor_type;location;lat;lon;timestamp;pressure;altitude;pressure_sealevel;temperature;humidity
20444;BME280;10381;53.730;10.010;2023-03-26T00:03:01;99796.94;;;6.29;100.00
20444;BME280;10381;53.730;10.010;2023-03-26T00:07:02;99803.19;;;6.28;100.00
20444;BME280;10381;53.730;10.010;2023-03-26T00:11:03;99806.75;;;6.27;100.00
20444;BME280;10381;53.730;10.010;2023-03-26T00:15:05;99818.66;;;6.21;100.00
20444;BME280;10381;53.730;10.010;2023-03-26T00:19:05;99819.88;;;6.17;100.00
20444;BME280;10381;53.730;10.010;2023-03-26T00:23:06;99823.72;;;6.13;100.00
20444;BME280;10381;53.730;10.010;2023-03-26T00:27:07;99824.00;;;6.10;100.00
20444;BME280;10381;53.730;10.010;2023-03-26T00:31:11;99837.41;;;6.07;100.00
20444;BME280;10381;53.730;10.010;2023-03-26T00:35:12;99843.63;;;6.06;100.00
20444;BME280;10381;53.730;10.010;2023-03-26T00:39:13;99853.19;;;6.07;100.00
20444;BME280;10381;53.730;10.010;2023-03-26T00:43:14;99852.91;;;6.10;100.00
20444;BME280;10381;53.730;10.010;2023-03-26T00:47:20;99851.25;;;6.09;100.00
20444;BME280;10381;53.730;10.010;2023-03-26T00:51:21;99857.63;;;6.06;100.00
20444;BME280;10381;53.730;10.010;2023-03-26T00:55:22;99852.47;;;6.05;100.00
20444;BME280;10381;53.730;10.010;2023-03-26T00:59:22;99862.56;;;6.00;100.00
20444;BME280;10381;53.730;10.010;2023-03-26T01:03:27;99860.88;;;5.98;100.00
20444;BME280;10381;53.730;10.010;2023-03-26T01:07:28;99864.19;;;6.01;100.00
20444;BME280;10381;53.730;10.010;2023-03-26T01:11:31;99877.94;;;6.04;100.00
20444;BME280;10381;53.730;10.010;2023-03-26T01:15:32;99875.56;;;6.01;100.00
20444;BME280;10381;53.730;10.010;2023-03-26T01:20:00;99878.31;;;6.00;100.00
20444;BME280;10381;53.730;10.010;2023-03-26T01:24:12;99878.31;;;6.00;100.00
20444;BME280;10381;53.730;10.010;2023-03-26T01:28:13;99889.66;;;6.00;100.00
20444;BME280;10381;53.730;10.010;2023-03-26T01:33:02;99899.38;;;5.88;100.00
20444;BME280;10381;53.730;10.010;2023-03-26T01:36:56;99902.13;;;5.66;100.00
20444;BME280;10381;53.730;10.010;2023-03-26T01:41:22;99907.78;;;5.50;100.00
20444;BME280;10381;53.730;10.010;2023-03-26T01:45:29;99904.59;;;5.35;100.00
20444;BME280;10381;53.730;10.010;2023-03-26T01:49:31;99911.19;;;5.29;100.00
20444;BME280;10381;53.730;10.010;2023-03-26T01:53:32;99916.34;;;5.20;100.00
20444;BME280;10381;53.730;10.010;2023-03-26T02:06:31;99912.56;;;5.01;100.00
20444;BME280;10381;53.730;10.010;2023-03-26T02:10:41;99911.38;;;4.94;100.00
20444;BME280;10381;53.730;10.010;2023-03-26T02:14:43;99915.78;;;4.94;100.00
20444;BME280;10381;53.730;10.010;2023-03-26T02:18:45;99913.03;;;4.95;100.00
20444;BME280;10381;53.730;10.010;2023-03-26T02:22:47;99916.25;;;4.87;100.00
20444;BME280;10381;53.730;10.010;2023-03-26T02:26:47;99915.44;;;4.87;100.00
20444;BME280;10381;53.730;10.010;2023-03-26T02:30:47;99912.69;;;4.88;100.00
20444;BME280;10381;53.730;10.010;2023-03-26T02:34:48;99916.97;;;4.89;100.00
20444;BME280;10381;53.730;10.010;2023-03-26T02:38:50;99914.47;;;4.88;100.00
20444;BME280;10381;53.730;10.010;2023-03-26T02:42:50;99915.19;;;4.90;100.00
20444;BME280;10381;53.730;10.010;2023-03-26T02:46:51;99925.69;;;4.90;100.00
20444;BME280;10381;53.730;10.010;2023-03-26T02:50:51;99920.06;;;4.83;100.00
20444;BME280;10381;53.730;10.010;2023-03-26T02:54:53;99927.72;;;4.75;100.00
20444;BME280;10381;53.730;10.010;2023-03-26T02:58:53;99926.41;;;4.69;100.00
20444;BME280;10381;53.730;10.010;2023-03-26T03:02:54;99922.59;;;4.62;100.00
20444;BME280;10381;53.730;10.010;2023-03-26T03:06:56;99914.47;;;4.54;100.00
20444;BME280;10381;53.730;10.010;2023-03-26T03:11:09;99919.72;;;4.43;100.00
20444;BME280;10381;53.730;10.010;2023-03-26T03:15:11;99934.59;;;4.31;100.00
20444;BME280;10381;53.730;10.010;2023-03-26T03:19:11;99928.53;;;4.31;100.00
20444;BME280;10381;53.730;10.010;2023-03-26T03:23:12;99920.91;;;4.39;100.00
20444;BME280;10381;53.730;10.010;2023-03-26T03:27:12;99920.56;;;4.43;100.00
20444;BME280;10381;53.730;10.010;2023-03-26T03:31:13;99922.94;;;4.46;100.00
20444;BME280;10381;53.730;10.010;2023-03-26T03:35:13;99930.78;;;4.46;100.00
20444;BME280;10381;53.730;10.010;2023-03-26T03:39:14;99922.34;;;4.43;100.00
20444;BME280;10381;53.730;10.010;2023-03-26T03:43:14;99930.56;;;4.38;100.00
20444;BME280;10381;53.730;10.010;2023-03-26T03:47:14;99920.91;;;4.39;100.00
20444;BME280;10381;53.730;10.010;2023-03-26T03:51:16;99926.13;;;4.39;100.00
20444;BME280;10381;53.730;10.010;2023-03-26T03:55:17;99926.50;;;4.45;100.00
20444;BME280;10381;53.730;10.010;2023-03-26T03:59:17;99913.97;;;4.49;100.00
20444;BME280;10381;53.730;10.010;2023-03-26T04:03:18;99912.19;;;4.49;100.00
20444;BME280;10381;53.730;10.010;2023-03-26T04:07:19;99915.06;;;4.46;100.00
20444;BME280;10381;53.730;10.010;2023-03-26T04:11:20;99905.53;;;4.45;100.00
20444;BME280;10381;53.730;10.010;2023-03-26T04:15:20;99908.50;;;4.41;100.00
20444;BME280;10381;53.730;10.010;2023-03-26T04:19:21;99906.72;;;4.41;100.00
20444;BME280;10381;53.730;10.010;2023-03-26T04:23:21;99913.06;;;4.50;100.00
20444;BME280;10381;53.730;10.010;2023-03-26T04:27:24;99906.50;;;4.56;100.00
20444;BME280;10381;53.730;10.010;2023-03-26T04:31:27;99912.31;;;4.59;100.00
20444;BME280;10381;53.730;10.010;2023-03-26T04:35:32;99898.00;;;4.63;100.00
20444;BME280;10381;53.730;10.010;2023-03-26T04:39:33;99892.03;;;4.61;100.00
20444;BME280;10381;53.730;10.010;2023-03-26T04:43:35;99894.91;;;4.58;100.00
20444;BME280;10381;53.730;10.010;2023-03-26T04:47:35;99888.00;;;4.57;100.00
20444;BME280;10381;53.730;10.010;2023-03-26T04:51:37;99890.38;;;4.49;100.00
20444;BME280;10381;53.730;10.010;2023-03-26T04:55:42;99895.97;;;4.44;100.00
20444;BME280;10381;53.730;10.010;2023-03-26T04:59:44;99901.56;;;4.40;100.00
20444;BME280;10381;53.730;10.010;2023-03-26T05:03:44;99899.44;;;4.34;100.00
20444;BME280;10381;53.730;10.010;2023-03-26T05:07:44;99897.66;;;4.34;100.00
20444;BME280;10381;53.730;10.010;2023-03-26T05:11:45;99898.72;;;4.32;100.00
20444;BME280;10381;53.730;10.010;2023-03-26T05:15:47;99901.09;;;4.35;100.00
20444;BME280;10381;53.730;10.010;2023-03-26T05:19:47;99910.03;;;4.32;100.00
20444;BME280;10381;53.730;10.010;2023-03-26T05:23:48;99904.28;;;4.16;100.00
20444;BME280;10381;53.730;10.010;2023-03-26T05:27:48;99907.63;;;4.07;100.00
20444;BME280;10381;53.730;10.010;2023-03-26T05:31:48;99914.13;;;4.01;100.00
20444;BME280;10381;53.730;10.010;2023-03-26T05:36:21;99919.16;;;4.04;100.00
20444;BME280;10381;53.730;10.010;2023-03-26T05:40:22;99917.72;;;4.11;100.00
20444;BME280;10381;53.730;10.010;2023-03-26T05:44:22;99925.03;;;4.19;100.00
20444;BME280;10381;53.730;10.010;2023-03-26T05:48:24;99926.47;;;4.23;100.00
20444;BME280;10381;53.730;10.010;2023-03-26T05:52:25;99925.19;;;4.29;100.00
20444;BME280;10381;53.730;10.010;2023-03-26T05:56:25;99934.34;;;4.34;100.00
20444;BME280;10381;53.730;10.010;2023-03-26T06:00:26;99935.66;;;4.29;100.00
20444;BME280;10381;53.730;10.010;2023-03-26T06:04:26;99936.88;;;4.47;100.00
20444;BME280;10381;53.730;10.010;2023-03-26T06:08:27;99943.22;;;4.56;100.00
20444;BME280;10381;53.730;10.010;2023-03-26T06:12:28;99935.59;;;4.53;100.00
20444;BME280;10381;53.730;10.010;2023-03-26T06:16:28;99928.06;;;4.59;100.00
20444;BME280;10381;53.730;10.010;2023-03-26T06:20:29;99934.88;;;4.51;100.00
20444;BME280;10381;53.730;10.010;2023-03-26T06:24:29;99933.53;;;4.56;100.00
20444;BME280;10381;53.730;10.010;2023-03-26T06:28:29;99933.56;;;4.67;100.00
20444;BME280;10381;53.730;10.010;2023-03-26T06:32:30;99932.13;;;4.75;100.00
20444;BME280;10381;53.730;10.010;2023-03-26T06:36:30;99929.97;;;4.68;100.00
20444;BME280;10381;53.730;10.010;2023-03-26T06:40:31;99927.59;;;4.65;100.00
20444;BME280;10381;53.730;10.010;2023-03-26T06:44:31;99905.28;;;4.71;100.00
20444;BME280;10381;53.730;10.010;2023-03-26T06:48:32;99912.78;;;4.76;100.00
20444;BME280;10381;53.730;10.010;2023-03-26T06:52:32;99917.59;;;4.82;100.00
20444;BME280;10381;53.730;10.010;2023-03-26T06:56:32;99910.19;;;4.87;100.00
20444;BME280;10381;53.730;10.010;2023-03-26T07:00:33;99909.94;;;5.01;100.00
20444;BME280;10381;53.730;10.010;2023-03-26T07:04:33;99921.38;;;5.00;100.00
20444;BME280;10381;53.730;10.010;2023-03-26T07:08:33;99917.09;;;4.88;100.00
20444;BME280;10381;53.730;10.010;2023-03-26T07:12:34;99908.03;;;4.81;100.00
20444;BME280;10381;53.730;10.010;2023-03-26T07:16:34;99907.66;;;5.08;100.00
20444;BME280;10381;53.730;10.010;2023-03-26T07:20:35;99899.44;;;5.01;100.00
20444;BME280;10381;53.730;10.010;2023-03-26T07:24:35;99903.75;;;4.91;100.00
20444;BME280;10381;53.730;10.010;2023-03-26T07:28:45;99899.38;;;5.24;100.00
20444;BME280;10381;53.730;10.010;2023-03-26T07:33:08;99909.41;;;5.30;100.00
20444;BME280;10381;53.730;10.010;2023-03-26T07:41:24;99915.16;;;5.12;100.00
20444;BME280;10381;53.730;10.010;2023-03-26T07:49:35;99921.25;;;5.02;100.00
20444;BME280;10381;53.730;10.010;2023-03-26T07:53:36;99921.94;;;5.26;100.00
20444;BME280;10381;53.730;10.010;2023-03-26T07:57:47;99920.53;;;5.22;100.00
20444;BME280;10381;53.730;10.010;2023-03-26T08:11:07;99907.63;;;5.84;100.00
20444;BME280;10381;53.730;10.010;2023-03-26T08:15:20;99912.25;;;5.70;100.00
20444;BME280;10381;53.730;10.010;2023-03-26T08:24:09;99918.53;;;5.79;100.00
20444;BME280;10381;53.730;10.010;2023-03-26T08:28:24;99919.81;;;5.52;100.00
20444;BME280;10381;53.730;10.010;2023-03-26T08:32:29;99904.50;;;5.69;100.00
20444;BME280;10381;53.730;10.010;2023-03-26T08:36:29;99911.50;;;5.36;100.00
20444;BME280;10381;53.730;10.010;2023-03-26T09:02:25;99917.66;;;6.53;100.00
20444;BME280;10381;53.730;10.010;2023-03-26T09:07:06;99930.06;;;6.20;100.00
20444;BME280;10381;53.730;10.010;2023-03-26T09:11:25;99912.72;;;5.75;100.00
20444;BME280;10381;53.730;10.010;2023-03-26T09:24:45;99914.78;;;6.35;100.00
20444;BME280;10381;53.730;10.010;2023-03-26T09:37:53;99915.25;;;7.11;100.00
20444;BME280;10381;53.730;10.010;2023-03-26T09:50:53;99928.22;;;6.32;100.00
20444;BME280;10381;53.730;10.010;2023-03-26T09:55:12;99916.34;;;5.84;100.00
20444;BME280;10381;53.730;10.010;2023-03-26T09:59:43;99915.59;;;5.93;100.00
20444;BME280;10381;53.730;10.010;2023-03-26T10:03:52;99922.28;;;6.39;100.00
20444;BME280;10381;53.730;10.010;2023-03-26T10:12:49;99939.56;;;7.24;100.00
20444;BME280;10381;53.730;10.010;2023-03-26T10:17:30;99939.03;;;6.59;100.00
20444;BME280;10381;53.730;10.010;2023-03-26T10:26:57;99930.34;;;6.38;100.00
20444;BME280;10381;53.730;10.010;2023-03-26T10:31:15;99935.59;;;6.99;100.00
20444;BME280;10381;53.730;10.010;2023-03-26T10:44:03;99930.09;;;7.12;100.00
20444;BME280;10381;53.730;10.010;2023-03-26T10:48:19;99933.97;;;7.08;100.00
20444;BME280;10381;53.730;10.010;2023-03-26T10:52:23;99935.75;;;7.58;100.00
20444;BME280;10381;53.730;10.010;2023-03-26T10:56:33;99935.97;;;7.35;100.00
20444;BME280;10381;53.730;10.010;2023-03-26T11:00:41;99939.50;;;7.84;100.00
20444;BME280;10381;53.730;10.010;2023-03-26T11:13:28;99936.31;;;7.11;100.00
20444;BME280;10381;53.730;10.010;2023-03-26T11:21:47;99932.06;;;6.79;100.00
20444;BME280;10381;53.730;10.010;2023-03-26T11:30:39;99954.59;;;8.21;100.00
20444;BME280;10381;53.730;10.010;2023-03-26T11:39:20;99927.16;;;7.06;100.00
20444;BME280;10381;53.730;10.010;2023-03-26T11:43:29;99933.34;;;7.55;100.00
20444;BME280;10381;53.730;10.010;2023-03-26T11:47:45;99941.72;;;8.75;100.00
20444;BME280;10381;53.730;10.010;2023-03-26T11:51:47;99941.50;;;8.39;100.00
20444;BME280;10381;53.730;10.010;2023-03-26T11:56:25;99945.31;;;7.78;100.00
20444;BME280;10381;53.730;10.010;2023-03-26T12:00:27;99934.16;;;7.45;100.00
20444;BME280;10381;53.730;10.010;2023-03-26T12:04:34;99930.16;;;8.29;100.00
20444;BME280;10381;53.730;10.010;2023-03-26T12:08:38;99944.19;;;8.00;100.00
20444;BME280;10381;53.730;10.010;2023-03-26T12:12:40;99939.78;;;8.10;100.00
20444;BME280;10381;53.730;10.010;2023-03-26T12:16:56;99946.00;;;7.71;100.00
20444;BME280;10381;53.730;10.010;2023-03-26T12:21:07;99929.16;;;7.33;100.00
20444;BME280;10381;53.730;10.010;2023-03-26T12:25:22;99932.00;;;7.70;100.00
20444;BME280;10381;53.730;10.010;2023-03-26T12:29:23;99929.47;;;8.07;100.00
20444;BME280;10381;53.730;10.010;2023-03-26T12:33:26;99929.47;;;8.07;100.00
20444;BME280;10381;53.730;10.010;2023-03-26T12:37:37;99926.13;;;8.35;100.00
20444;BME280;10381;53.730;10.010;2023-03-26T12:41:41;99922.09;;;8.40;100.00
20444;BME280;10381;53.730;10.010;2023-03-26T12:45:42;99917.22;;;8.45;100.00
20444;BME280;10381;53.730;10.010;2023-03-26T12:49:43;99915.56;;;8.25;100.00
20444;BME280;10381;53.730;10.010;2023-03-26T13:15:41;99922.38;;;9.12;100.00
20444;BME280;10381;53.730;10.010;2023-03-26T13:20:03;99914.44;;;8.84;100.00
20444;BME280;10381;53.730;10.010;2023-03-26T13:32:57;99906.63;;;8.92;100.00
20444;BME280;10381;53.730;10.010;2023-03-26T13:37:14;99913.91;;;8.43;100.00
20444;BME280;10381;53.730;10.010;2023-03-26T13:41:27;99910.09;;;8.56;100.00
20444;BME280;10381;53.730;10.010;2023-03-26T13:50:24;99900.94;;;8.87;100.00
20444;BME280;10381;53.730;10.010;2023-03-26T13:54:10;99906.38;;;8.86;100.00
20444;BME280;10381;53.730;10.010;2023-03-26T13:58:19;99904.66;;;9.22;100.00
20444;BME280;10381;53.730;10.010;2023-03-26T14:02:35;99901.00;;;9.05;97.98
20444;BME280;10381;53.730;10.010;2023-03-26T14:06:45;99894.44;;;9.55;100.00
20444;BME280;10381;53.730;10.010;2023-03-26T14:10:52;99897.13;;;9.45;100.00
20444;BME280;10381;53.730;10.010;2023-03-26T14:15:05;99917.88;;;9.22;99.70
20444;BME280;10381;53.730;10.010;2023-03-26T14:41:45;99927.97;;;7.95;100.00
20444;BME280;10381;53.730;10.010;2023-03-26T14:46:09;99923.50;;;7.96;100.00
20444;BME280;10381;53.730;10.010;2023-03-26T14:50:33;99921.03;;;7.94;100.00
20444;BME280;10381;53.730;10.010;2023-03-26T14:54:40;99917.34;;;8.44;100.00
20444;BME280;10381;53.730;10.010;2023-03-26T15:20:20;99934.22;;;8.70;95.02
20444;BME280;10381;53.730;10.010;2023-03-26T15:25:31;99932.00;;;8.66;94.08
20444;BME280;10381;53.730;10.010;2023-03-26T15:33:53;99925.72;;;9.14;97.26
20444;BME280;10381;53.730;10.010;2023-03-26T15:42:47;99935.09;;;8.99;98.50
20444;BME280;10381;53.730;10.010;2023-03-26T15:46:59;99944.69;;;8.62;100.00
20444;BME280;10381;53.730;10.010;2023-03-26T15:51:23;99947.50;;;8.31;100.00
20444;BME280;10381;53.730;10.010;2023-03-26T15:55:33;99944.44;;;8.36;100.00
20444;BME280;10381;53.730;10.010;2023-03-26T15:59:48;99954.13;;;8.65;100.00
20444;BME280;10381;53.730;10.010;2023-03-26T16:04:03;99957.50;;;8.57;100.00
20444;BME280;10381;53.730;10.010;2023-03-26T16:08:45;99959.16;;;8.58;100.00
20444;BME280;10381;53.730;10.010;2023-03-26T16:17:18;99965.88;;;8.14;100.00
20444;BME280;10381;53.730;10.010;2023-03-26T16:25:31;99963.88;;;7.57;100.00
20444;BME280;10381;53.730;10.010;2023-03-26T16:30:01;99964.59;;;7.88;100.00
20444;BME280;10381;53.730;10.010;2023-03-26T16:33:58;99968.78;;;8.10;100.00
20444;BME280;10381;53.730;10.010;2023-03-26T16:38:12;99972.97;;;8.13;100.00
20444;BME280;10381;53.730;10.010;2023-03-26T16:42:32;99967.09;;;8.09;100.00
20444;BME280;10381;53.730;10.010;2023-03-26T16:46:42;99970.28;;;7.74;100.00
20444;BME280;10381;53.730;10.010;2023-03-26T16:50:55;99978.03;;;7.56;100.00
20444;BME280;10381;53.730;10.010;2023-03-26T16:59:16;99980.06;;;7.33;100.00
20444;BME280;10381;53.730;10.010;2023-03-26T17:03:31;99996.94;;;7.21;100.00
20444;BME280;10381;53.730;10.010;2023-03-26T17:07:37;100000.25;;;7.13;100.00
20444;BME280;10381;53.730;10.010;2023-03-26T17:11:57;100000.59;;;6.99;100.00
20444;BME280;10381;53.730;10.010;2023-03-26T17:16:08;99999.28;;;6.83;100.00
20444;BME280;10381;53.730;10.010;2023-03-26T17:20:41;100009.19;;;6.70;100.00
20444;BME280;10381;53.730;10.010;2023-03-26T17:24:46;100014.66;;;6.57;100.00
20444;BME280;10381;53.730;10.010;2023-03-26T17:33:41;100030.44;;;6.36;100.00
20444;BME280;10381;53.730;10.010;2023-03-26T17:37:43;100030.47;;;6.25;100.00
20444;BME280;10381;53.730;10.010;2023-03-26T17:41:51;100038.66;;;6.11;100.00
20444;BME280;10381;53.730;10.010;2023-03-26T17:45:53;100044.69;;;6.02;100.00
20444;BME280;10381;53.730;10.010;2023-03-26T17:50:01;100051.41;;;5.94;100.00
20444;BME280;10381;53.730;10.010;2023-03-26T17:54:13;100054.13;;;5.82;100.00
20444;BME280;10381;53.730;10.010;2023-03-26T17:58:22;100060.00;;;5.74;100.00
20444;BME280;10381;53.730;10.010;2023-03-26T18:02:34;100071.03;;;5.57;100.00
20444;BME280;10381;53.730;10.010;2023-03-26T18:11:14;100082.13;;;5.38;100.00
20444;BME280;10381;53.730;10.010;2023-03-26T18:15:39;100092.06;;;5.34;100.00
20444;BME280;10381;53.730;10.010;2023-03-26T18:19:50;100090.00;;;5.15;100.00
20444;BME280;10381;53.730;10.010;2023-03-26T18:23:51;100106.84;;;5.24;100.00
20444;BME280;10381;53.730;10.010;2023-03-26T18:27:52;100105.88;;;5.13;100.00
20444;BME280;10381;53.730;10.010;2023-03-26T18:31:58;100112.06;;;5.01;100.00
20444;BME280;10381;53.730;10.010;2023-03-26T18:36:02;100120.72;;;4.90;100.00
20444;BME280;10381;53.730;10.010;2023-03-26T18:44:14;100137.31;;;4.80;100.00
20444;BME280;10381;53.730;10.010;2023-03-26T18:48:21;100139.31;;;4.76;100.00
20444;BME280;10381;53.730;10.010;2023-03-26T18:52:22;100138.56;;;4.63;100.00
20444;BME280;10381;53.730;10.010;2023-03-26T18:56:36;100162.28;;;4.37;100.00
20444;BME280;10381;53.730;10.010;2023-03-26T19:00:36;100157.53;;;4.42;100.00
20444;BME280;10381;53.730;10.010;2023-03-26T19:04:40;100171.84;;;4.38;100.00
20444;BME280;10381;53.730;10.010;2023-03-26T19:08:43;100179.56;;;4.40;100.00
20444;BME280;10381;53.730;10.010;2023-03-26T19:12:56;100187.31;;;4.17;100.00
20444;BME280;10381;53.730;10.010;2023-03-26T19:16:59;100191.50;;;4.20;100.00
20444;BME280;10381;53.730;10.010;2023-03-26T19:21:02;100200.56;;;4.03;100.00
20444;BME280;10381;53.730;10.010;2023-03-26T19:25:03;100199.81;;;4.01;100.00
20444;BME280;10381;53.730;10.010;2023-03-26T19:29:04;100201.19;;;3.94;100.00
20444;BME280;10381;53.730;10.010;2023-03-26T19:33:17;100211.63;;;3.82;100.00
20444;BME280;10381;53.730;10.010;2023-03-26T19:37:22;100214.97;;;3.72;100.00
20444;BME280;10381;53.730;10.010;2023-03-26T19:41:31;100221.88;;;3.60;100.00
20444;BME280;10381;53.730;10.010;2023-03-26T19:45:33;100232.56;;;3.57;100.00
20444;BME280;10381;53.730;10.010;2023-03-26T19:49:46;100235.06;;;3.46;100.00
20444;BME280;10381;53.730;10.010;2023-03-26T19:53:52;100236.63;;;3.35;100.00
20444;BME280;10381;53.730;10.010;2023-03-26T19:57:53;100242.00;;;3.47;100.00
20444;BME280;10381;53.730;10.010;2023-03-26T20:01:53;100252.78;;;3.42;100.00
20444;BME280;10381;53.730;10.010;2023-03-26T20:05:54;100265.59;;;3.19;100.00
20444;BME280;10381;53.730;10.010;2023-03-26T20:09:54;100265.59;;;3.19;100.00
20444;BME280;10381;53.730;10.010;2023-03-26T20:13:55;100263.72;;;3.22;100.00
20444;BME280;10381;53.730;10.010;2023-03-26T20:17:55;100265.97;;;3.01;100.00
20444;BME280;10381;53.730;10.010;2023-03-26T20:21:56;100271.75;;;2.78;100.00
20444;BME280;10381;53.730;10.010;2023-03-26T20:25:56;100276.19;;;2.91;100.00
20444;BME280;10381;53.730;10.010;2023-03-26T20:29:57;100285.97;;;2.74;100.00
20444;BME280;10381;53.730;10.010;2023-03-26T20:33:58;100280.41;;;2.52;100.00
20444;BME280;10381;53.730;10.010;2023-03-26T20:37:58;100290.34;;;2.74;100.00
20444;BME280;10381;53.730;10.010;2023-03-26T20:41:58;100293.13;;;2.58;100.00
20444;BME280;10381;53.730;10.010;2023-03-26T20:45:58;100288.53;;;2.47;100.00
20444;BME280;10381;53.730;10.010;2023-03-26T20:49:59;100288.09;;;2.41;100.00
20444;BME280;10381;53.730;10.010;2023-03-26T20:54:00;100292.59;;;2.39;100.00
20444;BME280;10381;53.730;10.010;2023-03-26T20:58:01;100306.97;;;2.31;100.00
20444;BME280;10381;53.730;10.010;2023-03-26T21:02:02;100305.00;;;2.35;100.00
20444;BME280;10381;53.730;10.010;2023-03-26T21:06:05;100299.63;;;2.09;100.00
20444;BME280;10381;53.730;10.010;2023-03-26T21:10:11;100309.47;;;1.90;100.00
20444;BME280;10381;53.730;10.010;2023-03-26T21:14:14;100322.75;;;2.16;100.00
20444;BME280;10381;53.730;10.010;2023-03-26T21:18:17;100322.94;;;1.98;100.00
20444;BME280;10381;53.730;10.010;2023-03-26T21:22:23;100323.84;;;1.83;100.00
20444;BME280;10381;53.730;10.010;2023-03-26T21:26:35;100324.75;;;1.67;100.00
20444;BME280;10381;53.730;10.010;2023-03-26T21:30:38;100332.84;;;1.63;100.00
20444;BME280;10381;53.730;10.010;2023-03-26T21:34:39;100334.97;;;1.56;100.00
20444;BME280;10381;53.730;10.010;2023-03-26T21:38:40;100345.19;;;1.45;100.00
20444;BME280;10381;53.730;10.010;2023-03-26T21:42:50;100354.25;;;1.54;100.00
20444;BME280;10381;53.730;10.010;2023-03-26T21:46:50;100352.59;;;1.53;100.00
20444;BME280;10381;53.730;10.010;2023-03-26T21:50:51;100359.59;;;1.36;100.00
20444;BME280;10381;53.730;10.010;2023-03-26T21:54:52;100370.66;;;1.25;100.00
20444;BME280;10381;53.730;10.010;2023-03-26T22:08:03;100380.34;;;1.23;100.00
20444;BME280;10381;53.730;10.010;2023-03-26T22:12:04;100381.00;;;1.27;100.00
20444;BME280;10381;53.730;10.010;2023-03-26T22:16:06;100388.34;;;1.04;100.00
20444;BME280;10381;53.730;10.010;2023-03-26T22:20:11;100388.44;;;1.03;100.00
20444;BME280;10381;53.730;10.010;2023-03-26T22:24:12;100399.31;;;1.11;100.00
20444;BME280;10381;53.730;10.010;2023-03-26T22:28:12;100401.47;;;1.03;100.00
20444;BME280;10381;53.730;10.010;2023-03-26T22:32:14;100408.72;;;0.98;100.00
20444;BME280;10381;53.730;10.010;2023-03-26T22:36:15;100412.94;;;0.84;100.00
20444;BME280;10381;53.730;10.010;2023-03-26T22:40:15;100422.91;;;0.76;100.00
20444;BME280;10381;53.730;10.010;2023-03-26T22:44:17;100430.63;;;0.62;100.00
20444;BME280;10381;53.730;10.010;2023-03-26T22:48:17;100433.91;;;0.66;100.00
20444;BME280;10381;53.730;10.010;2023-03-26T22:52:17;100443.59;;;0.63;100.00
20444;BME280;10381;53.730;10.010;2023-03-26T22:56:17;100442.47;;;0.52;100.00
20444;BME280;10381;53.730;10.010;2023-03-26T23:00:18;100455.66;;;0.31;100.00
20444;BME280;10381;53.730;10.010;2023-03-26T23:04:21;100457.25;;;0.51;100.00
20444;BME280;10381;53.730;10.010;2023-03-26T23:08:25;100461.34;;;0.39;100.00
20444;BME280;10381;53.730;10.010;2023-03-26T23:12:26;100470.25;;;0.18;100.00
20444;BME280;10381;53.730;10.010;2023-03-26T23:16:26;100472.31;;;0.11;100.00
20444;BME280;10381;53.730;10.010;2023-03-26T23:20:26;100476.66;;;0.28;100.00
20444;BME280;10381;53.730;10.010;2023-03-26T23:24:28;100481.66;;;0.15;100.00
20444;BME280;10381;53.730;10.010;2023-03-26T23:28:30;100484.94;;;0.02;100.00
20444;BME280;10381;53.730;10.010;2023-03-26T23:32:34;100489.69;;;-0.07;100.00
20444;BME280;10381;53.730;10.010;2023-03-26T23:36:36;100492.31;;;-0.07;100.00
20444;BME280;10381;53.730;10.010;2023-03-26T23:40:37;100501.56;;;-0.01;100.00
20444;BME280;10381;53.730;10.010;2023-03-26T23:44:39;100500.22;;;-0.27;100.00
20444;BME280;10381;53.730;10.010;2023-03-26T23:48:39;100507.19;;;-0.28;100.00
20444;BME280;10381;53.730;10.010;2023-03-26T23:52:41;100510.53;;;-0.62;100.00
20444;BME280;10381;53.730;10.010;2023-03-26T23:56:44;100512.63;;;-0.51;100.00
